Time;durP1;ratioP1;P1;durP2;ratioP2;P2;SDS_P1;SDS_P2;PMS_P1;PMS_P2;Temp;Humidity;BMP_temperature;BMP_pressure;BME280_temperature;BME280_humidity;BME280_pressure;Samples;Min_cycle;Max_cycle;Signal;HPM_P1;HPM_P2
2022/03/16 00:00:39;;;;;;;;;;;;;;;;;;4981638;28;21280;-70
2022/03/16 00:03:06;;;;;;;;;;;;;;;;;;4999937;28;20441;-70
2022/03/16 00:05:33;;;;;;;;;;;;;;;;;;4978456;28;19920;-70
2022/03/16 00:08:00;;;;;;;;;;;;;;;;;;5014476;28;19922;-71
2022/03/16 00:10:27;;;;;;;;;;;;;;;;;;4979192;28;20012;-70
2022/03/16 00:12:55;;;;;;;;;;;;;;;;;;4978644;28;20451;-70
2022/03/16 00:15:21;;;;;;;;;;;;;;;;;;4990174;28;20033;-71
2022/03/16 00:17:47;;;;;;;;;;;;;;;;;;5000420;28;19917;-70
2022/03/16 00:20:14;;;;;;;;;;;;;;;;;;5001118;28;19917;-69
2022/03/16 00:22:41;;;;;;;;;;;;;;;;;;5001142;28;21252;-70
2022/03/16 00:25:09;;;;;;;;;;;;;;;;;;5001534;28;20012;-70
2022/03/16 00:27:35;;;;;;;;;;;;;;;;;;4999591;28;19917;-70
2022/03/16 00:30:03;;;;;;;;;;;;;;;;;;5004947;28;20228;-70
2022/03/16 00:32:29;;;;;;;;;;;;;;;;;;4962849;28;20949;-70
2022/03/16 00:34:55;;;;;;;;;;;;;;;;;;4972035;28;20384;-71
2022/03/16 00:37:22;;;;;;;;;;;;;;;;;;4953310;28;19929;-70
2022/03/16 00:39:48;;;;;;;;;;;;;;;;;;4969757;28;20029;-71
2022/03/16 00:42:15;;;;;;;;;;;;;;;;;;4984812;28;19987;-70
2022/03/16 00:44:43;;;;;;;;;;;;;;;;;;4985367;28;20406;-71
2022/03/16 00:47:09;;;;;;;;;;;;;;;;;;4993426;28;19921;-71
2022/03/16 00:49:37;;;;;;;;;;;;;;;;;;4985086;28;19964;-71
2022/03/16 00:52:03;;;;;;;;;;;;;;;;;;4991025;28;19925;-71
2022/03/16 00:54:29;;;;;;;;;;;;;;;;;;4986556;28;19925;-71
2022/03/16 00:56:57;;;;;;;;;;;;;;;;;;4989540;28;20528;-69
2022/03/16 00:59:23;;;;;;;;;;;;;;;;;;4982428;28;19926;-70
2022/03/16 01:01:50;;;;;;;;;;;;;;;;;;4987727;28;19921;-71
2022/03/16 01:04:17;;;;;;;;;;;;;;;;;;4994052;28;19917;-70
2022/03/16 01:06:43;;;;;;;;;;;;;;;;;;4969626;28;20343;-70
2022/03/16 01:09:09;;;;;;;;;;;;;;;;;;4970593;28;19921;-69
2022/03/16 01:11:35;;;;;;;;;;;;;;;;;;4982013;28;20283;-69
2022/03/16 01:14:01;;;;;;;;;;;;;;;;;;4985700;28;19924;-70
2022/03/16 01:16:27;;;;;;;;;;;;;;;;;;4981908;28;19921;-70
2022/03/16 01:18:53;;;;;;;;;;;;;;;;;;4988443;28;20384;-69
2022/03/16 01:21:19;;;;;;;;;;;;;;;;;;4984303;28;20738;-69
2022/03/16 01:23:46;;;;;;;;;;;;;;;;;;5017541;28;20308;-70
2022/03/16 01:26:12;;;;;;;;;;;;;;;;;;5005192;28;19928;-70
2022/03/16 01:28:39;;;;;;;;;;;;;;;;;;5022783;28;20488;-70
2022/03/16 01:31:05;;;;;;;;;;;;;;;;;;4981371;28;19925;-70
2022/03/16 01:33:31;;;;;;;;;;;;;;;;;;4977997;28;19924;-69
2022/03/16 01:35:57;;;;;;;;;;;;;;;;;;4983161;28;19918;-70
2022/03/16 01:38:24;;;;;;;;;;;;;;;;;;4976536;28;19929;-69
2022/03/16 01:40:51;;;;;;;;;;;;;;;;;;4981477;28;19917;-70
2022/03/16 01:43:19;;;;;;;;;;;;;;;;;;4950683;28;20399;-70
2022/03/16 01:46:04;;;;;;;;;;;;;;;;;;4978142;28;19918;-70
2022/03/16 01:48:30;;;;;;;;;;;;;;;;;;4960896;28;21297;-70
2022/03/16 01:50:58;;;;;;;;;;;;;;;;;;4979420;28;19961;-70
2022/03/16 01:53:26;;;;;;;;;;;;;;;;;;4972007;28;19922;-70
2022/03/16 01:55:56;;;;;;;;;;;;;;;;;;4979168;28;19949;-70
2022/03/16 01:58:24;;;;;;;;;;;;;;;;;;4975493;28;19917;-70
2022/03/16 02:00:51;;;;;;;;;;;;;;;;;;4980937;28;19957;-70
2022/03/16 02:03:19;;;;;;;;;;;;;;;;;;4979231;28;19977;-70
2022/03/16 02:05:48;;;;;;;;;;;;;;;;;;4964622;28;21120;-70
2022/03/16 02:08:15;;;;;;;;;;;;;;;;;;4979135;28;19917;-70
2022/03/16 02:10:42;;;;;;;;;;;;;;;;;;4978834;28;19960;-70
2022/03/16 02:13:10;;;;;;;;;;;;;;;;;;4973494;28;19929;-70
2022/03/16 02:15:36;;;;;;;;;;;;;;;;;;4946830;28;20335;-70
2022/03/16 02:18:02;;;;;;;;;;;;;;;;;;4953328;28;20421;-70
2022/03/16 02:20:30;;;;;;;;;;;;;;;;;;4953745;28;19932;-70
2022/03/16 02:22:56;;;;;;;;;;;;;;;;;;4979333;28;19925;-70
2022/03/16 02:25:23;;;;;;;;;;;;;;;;;;4975478;28;20434;-70
2022/03/16 02:27:49;;;;;;;;;;;;;;;;;;4981537;28;20283;-70
2022/03/16 02:30:15;;;;;;;;;;;;;;;;;;4977560;28;19918;-70
2022/03/16 02:32:42;;;;;;;;;;;;;;;;;;4980749;28;20000;-70
2022/03/16 02:35:09;;;;;;;;;;;;;;;;;;4979638;28;19960;-70
2022/03/16 02:37:35;;;;;;;;;;;;;;;;;;4974849;28;20683;-70
2022/03/16 02:40:01;;;;;;;;;;;;;;;;;;4979455;28;20297;-70
2022/03/16 02:42:29;;;;;;;;;;;;;;;;;;4974236;28;20013;-69
2022/03/16 02:44:56;;;;;;;;;;;;;;;;;;4978124;28;19980;-70
2022/03/16 02:47:22;;;;;;;;;;;;;;;;;;4975923;28;19923;-70
2022/03/16 02:49:49;;;;;;;;;;;;;;;;;;4968160;28;19917;-70
2022/03/16 02:52:15;;;;;;;;;;;;;;;;;;4979605;28;19925;-70
2022/03/16 02:54:41;;;;;;;;;;;;;;;;;;4976282;28;19917;-69
2022/03/16 02:57:09;;;;;;;;;;;;;;;;;;4977375;28;19968;-69
2022/03/16 02:59:36;;;;;;;;;;;;;;;;;;4974775;28;19917;-70
2022/03/16 03:02:03;;;;;;;;;;;;;;;;;;4978901;28;19978;-70
2022/03/16 03:04:29;;;;;;;;;;;;;;;;;;4976892;28;20442;-69
2022/03/16 03:06:57;;;;;;;;;;;;;;;;;;4978801;28;20017;-70
2022/03/16 03:09:23;;;;;;;;;;;;;;;;;;4939685;28;19922;-70
2022/03/16 03:11:50;;;;;;;;;;;;;;;;;;4944532;28;19926;-70
2022/03/16 03:14:17;;;;;;;;;;;;;;;;;;4960112;28;19946;-70
2022/03/16 03:16:46;;;;;;;;;;;;;;;;;;4953706;28;19925;-69
2022/03/16 03:19:14;;;;;;;;;;;;;;;;;;4985528;28;20393;-69
2022/03/16 03:21:42;;;;;;;;;;;;;;;;;;4984210;28;19925;-70
2022/03/16 03:24:08;;;;;;;;;;;;;;;;;;4984084;28;20411;-71
2022/03/16 03:26:34;;;;;;;;;;;;;;;;;;4980866;28;19993;-70
2022/03/16 03:29:00;;;;;;;;;;;;;;;;;;4987000;28;20394;-70
2022/03/16 03:31:27;;;;;;;;;;;;;;;;;;4983623;28;20439;-69
2022/03/16 03:33:54;;;;;;;;;;;;;;;;;;4985269;28;19992;-69
2022/03/16 03:36:20;;;;;;;;;;;;;;;;;;4985775;28;19917;-70
2022/03/16 03:38:46;;;;;;;;;;;;;;;;;;4987297;28;19918;-70
2022/03/16 03:41:12;;;;;;;;;;;;;;;;;;4990078;28;20510;-70
2022/03/16 03:43:38;;;;;;;;;;;;;;;;;;4984198;28;19918;-70
2022/03/16 03:46:06;;;;;;;;;;;;;;;;;;4983859;28;19944;-70
2022/03/16 03:48:33;;;;;;;;;;;;;;;;;;4986993;28;19914;-70
2022/03/16 03:51:00;;;;;;;;;;;;;;;;;;4972277;28;21471;-70
2022/03/16 03:53:28;;;;;;;;;;;;;;;;;;4975987;28;19925;-70
2022/03/16 03:55:53;;;;;;;;;;;;;;;;;;4971177;28;19917;-70
2022/03/16 03:58:19;;;;;;;;;;;;;;;;;;4988980;28;19923;-70
2022/03/16 04:00:46;;;;;;;;;;;;;;;;;;4986233;28;20332;-70
2022/03/16 04:03:14;;;;;;;;;;;;;;;;;;4988160;28;19918;-70
2022/03/16 04:05:40;;;;;;;;;;;;;;;;;;4998050;28;19917;-70
2022/03/16 04:08:06;;;;;;;;;;;;;;;;;;5027577;28;20568;-69
2022/03/16 04:10:33;;;;;;;;;;;;;;;;;;5021604;28;20482;-70
2022/03/16 04:13:00;;;;;;;;;;;;;;;;;;5026313;28;19928;-70
2022/03/16 04:15:26;;;;;;;;;;;;;;;;;;5021703;28;19919;-70
2022/03/16 04:17:53;;;;;;;;;;;;;;;;;;5006182;28;19920;-70
2022/03/16 04:20:20;;;;;;;;;;;;;;;;;;5022601;28;19928;-71
2022/03/16 04:22:47;;;;;;;;;;;;;;;;;;5022349;28;19924;-70
2022/03/16 04:25:14;;;;;;;;;;;;;;;;;;5026677;28;20031;-70
2022/03/16 04:27:40;;;;;;;;;;;;;;;;;;5005290;28;19992;-70
2022/03/16 04:30:07;;;;;;;;;;;;;;;;;;5021845;28;20335;-71
2022/03/16 04:32:35;;;;;;;;;;;;;;;;;;5022394;28;19925;-70
2022/03/16 04:35:01;;;;;;;;;;;;;;;;;;5024243;28;19939;-70
2022/03/16 04:37:28;;;;;;;;;;;;;;;;;;5005562;28;20411;-70
2022/03/16 04:39:55;;;;;;;;;;;;;;;;;;5027163;28;20007;-71
2022/03/16 04:42:23;;;;;;;;;;;;;;;;;;5020339;28;19916;-70
2022/03/16 04:44:49;;;;;;;;;;;;;;;;;;5026656;28;19917;-70
2022/03/16 04:47:16;;;;;;;;;;;;;;;;;;5025928;28;19921;-70
2022/03/16 04:49:42;;;;;;;;;;;;;;;;;;5022167;28;19943;-70
2022/03/16 04:52:08;;;;;;;;;;;;;;;;;;5027550;28;19960;-70
2022/03/16 04:54:34;;;;;;;;;;;;;;;;;;5022099;28;20039;-70
2022/03/16 04:57:01;;;;;;;;;;;;;;;;;;5026234;28;19921;-70
2022/03/16 04:59:27;;;;;;;;;;;;;;;;;;5020773;28;19917;-71
2022/03/16 05:01:54;;;;;;;;;;;;;;;;;;5022225;28;20623;-70
2022/03/16 05:04:20;;;;;;;;;;;;;;;;;;5019942;28;19917;-70
2022/03/16 05:06:48;;;;;;;;;;;;;;;;;;5026230;28;19947;-70
2022/03/16 05:09:14;;;;;;;;;;;;;;;;;;5022949;28;19917;-70
2022/03/16 05:11:43;;;;;;;;;;;;;;;;;;5002374;28;19979;-70
2022/03/16 05:14:09;;;;;;;;;;;;;;;;;;5024283;28;20292;-70
2022/03/16 05:16:38;;;;;;;;;;;;;;;;;;5020881;28;19947;-70
2022/03/16 05:19:04;;;;;;;;;;;;;;;;;;5021317;28;20469;-70
2022/03/16 05:21:30;;;;;;;;;;;;;;;;;;5022774;28;19917;-71
2022/03/16 05:23:56;;;;;;;;;;;;;;;;;;5025894;28;20004;-70
2022/03/16 05:26:23;;;;;;;;;;;;;;;;;;5018153;28;19970;-70
2022/03/16 05:28:52;;;;;;;;;;;;;;;;;;5025954;28;21372;-70
2022/03/16 05:31:18;;;;;;;;;;;;;;;;;;5007200;28;20014;-70
2022/03/16 05:33:45;;;;;;;;;;;;;;;;;;5021079;28;20331;-70
2022/03/16 05:36:13;;;;;;;;;;;;;;;;;;5022016;28;20043;-71
2022/03/16 05:38:39;;;;;;;;;;;;;;;;;;5022276;28;19921;-69
2022/03/16 05:41:14;;;;;;;;;;;;;;;;;;5024698;28;19932;-70
2022/03/16 05:43:56;;;;;;;;;;;;;;;;;;5025257;28;19956;-70
2022/03/16 05:46:23;;;;;;;;;;;;;;;;;;5021971;28;20307;-69
2022/03/16 05:48:50;;;;;;;;;;;;;;;;;;5007779;28;20031;-71
2022/03/16 05:51:16;;;;;;;;;;;;;;;;;;5007662;28;19921;-71
2022/03/16 05:53:42;;;;;;;;;;;;;;;;;;5020626;28;19925;-70
2022/03/16 05:56:09;;;;;;;;;;;;;;;;;;5023067;28;19917;-71
2022/03/16 05:58:35;;;;;;;;;;;;;;;;;;5026013;28;20185;-70
2022/03/16 06:01:02;;;;;;;;;;;;;;;;;;5025695;28;19935;-70
2022/03/16 06:03:29;;;;;;;;;;;;;;;;;;5002546;28;20244;-70
2022/03/16 06:05:55;;;;;;;;;;;;;;;;;;5022406;28;19924;-70
2022/03/16 06:08:24;;;;;;;;;;;;;;;;;;5015598;28;20343;-70
2022/03/16 06:10:50;;;;;;;;;;;;;;;;;;5025366;28;20852;-70
2022/03/16 06:13:17;;;;;;;;;;;;;;;;;;5021178;28;19991;-70
2022/03/16 06:15:43;;;;;;;;;;;;;;;;;;5022967;28;19917;-69
2022/03/16 06:18:13;;;;;;;;;;;;;;;;;;5028010;28;19931;-70
2022/03/16 06:20:39;;;;;;;;;;;;;;;;;;5028296;28;19920;-70
2022/03/16 06:23:08;;;;;;;;;;;;;;;;;;5025762;28;20031;-70
2022/03/16 06:25:34;;;;;;;;;;;;;;;;;;5020107;28;19929;-70
2022/03/16 06:28:03;;;;;;;;;;;;;;;;;;5025794;28;19936;-70
2022/03/16 06:30:30;;;;;;;;;;;;;;;;;;5019851;28;20502;-70
2022/03/16 06:32:56;;;;;;;;;;;;;;;;;;5026554;28;19995;-70
2022/03/16 06:35:23;;;;;;;;;;;;;;;;;;5021769;28;19923;-69
2022/03/16 06:37:58;;;;;;;;;;;;;;;;;;5026228;28;19927;-70
2022/03/16 06:40:24;;;;;;;;;;;;;;;;;;5031032;28;19917;-70
2022/03/16 06:42:50;;;;;;;;;;;;;;;;;;5031230;28;19932;-70
2022/03/16 06:45:18;;;;;;;;;;;;;;;;;;5026579;28;19917;-70
2022/03/16 06:47:44;;;;;;;;;;;;;;;;;;5018982;28;19916;-70
2022/03/16 06:50:11;;;;;;;;;;;;;;;;;;5032643;28;19921;-70
2022/03/16 06:52:39;;;;;;;;;;;;;;;;;;5024905;28;20003;-70
2022/03/16 06:55:06;;;;;;;;;;;;;;;;;;5030695;28;19960;-69
2022/03/16 06:57:33;;;;;;;;;;;;;;;;;;5018842;28;20015;-69
2022/03/16 06:59:59;;;;;;;;;;;;;;;;;;5010909;28;20007;-70
2022/03/16 07:02:27;;;;;;;;;;;;;;;;;;5022119;28;19921;-69
2022/03/16 07:04:54;;;;;;;;;;;;;;;;;;5027018;28;20003;-69
2022/03/16 07:07:20;;;;;;;;;;;;;;;;;;5024171;28;19970;-69
2022/03/16 07:09:47;;;;;;;;;;;;;;;;;;5027909;28;19917;-69
2022/03/16 07:12:15;;;;;;;;;;;;;;;;;;5030287;28;20458;-69
2022/03/16 07:14:41;;;;;;;;;;;;;;;;;;5008489;28;19917;-70
2022/03/16 07:17:07;;;;;;;;;;;;;;;;;;5029950;28;20196;-70
2022/03/16 07:19:33;;;;;;;;;;;;;;;;;;5019100;28;19921;-70
2022/03/16 07:22:00;;;;;;;;;;;;;;;;;;5026494;28;19916;-70
2022/03/16 07:24:27;;;;;;;;;;;;;;;;;;5022897;28;19948;-70
2022/03/16 07:26:53;;;;;;;;;;;;;;;;;;5028802;28;20342;-70
2022/03/16 07:29:21;;;;;;;;;;;;;;;;;;5025094;28;19999;-70
2022/03/16 07:31:47;;;;;;;;;;;;;;;;;;5020442;28;20327;-70
2022/03/16 07:34:13;;;;;;;;;;;;;;;;;;5025850;28;19954;-70
2022/03/16 07:36:39;;;;;;;;;;;;;;;;;;5020204;28;23593;-72
2022/03/16 07:39:05;;;;;;;;;;;;;;;;;;5002816;28;19956;-70
2022/03/16 07:41:32;;;;;;;;;;;;;;;;;;5018570;28;20343;-70
2022/03/16 07:43:58;;;;;;;;;;;;;;;;;;5022866;28;20326;-70
2022/03/16 07:46:25;;;;;;;;;;;;;;;;;;5015357;28;19924;-70
2022/03/16 07:48:53;;;;;;;;;;;;;;;;;;5021260;28;19927;-70
2022/03/16 07:51:20;;;;;;;;;;;;;;;;;;5021164;28;19927;-69
2022/03/16 07:53:47;;;;;;;;;;;;;;;;;;5022915;28;19920;-70
2022/03/16 07:56:13;;;;;;;;;;;;;;;;;;5022320;28;19916;-71
2022/03/16 07:58:42;;;;;;;;;;;;;;;;;;5021079;28;20615;-70
2022/03/16 08:01:13;;;;;;;;;;;;;;;;;;5023948;28;19917;-70
2022/03/16 08:03:42;;;;;;;;;;;;;;;;;;5018381;28;20350;-70
2022/03/16 08:06:10;;;;;;;;;;;;;;;;;;5020909;28;19920;-71
2022/03/16 08:08:40;;;;;;;;;;;;;;;;;;5018753;28;21962;-70
2022/03/16 08:11:09;;;;;;;;;;;;;;;;;;4984461;28;19933;-70
2022/03/16 08:13:37;;;;;;;;;;;;;;;;;;5019454;28;19940;-70
2022/03/16 08:16:04;;;;;;;;;;;;;;;;;;5022490;28;19913;-70
2022/03/16 08:18:34;;;;;;;;;;;;;;;;;;5019740;28;19927;-70
2022/03/16 08:21:03;;;;;;;;;;;;;;;;;;5003516;28;20295;-70
2022/03/16 08:23:30;;;;;;;;;;;;;;;;;;4994344;28;19940;-70
2022/03/16 08:25:57;;;;;;;;;;;;;;;;;;5024152;28;19917;-70
2022/03/16 08:28:24;;;;;;;;;;;;;;;;;;5019617;28;20346;-70
2022/03/16 08:30:52;;;;;;;;;;;;;;;;;;5023466;28;19978;-70
2022/03/16 08:33:19;;;;;;;;;;;;;;;;;;4999890;28;19941;-70
2022/03/16 08:35:47;;;;;;;;;;;;;;;;;;4997922;28;19921;-70
2022/03/16 08:38:13;;;;;;;;;;;;;;;;;;4985375;28;19920;-70
2022/03/16 08:40:41;;;;;;;;;;;;;;;;;;4998979;28;19960;-70
2022/03/16 08:43:08;;;;;;;;;;;;;;;;;;4986161;28;20315;-70
2022/03/16 08:45:34;;;;;;;;;;;;;;;;;;4998870;28;20367;-70
2022/03/16 08:48:01;;;;;;;;;;;;;;;;;;5003324;28;20082;-70
2022/03/16 08:50:29;;;;;;;;;;;;;;;;;;4998961;28;20114;-70
2022/03/16 08:52:57;;;;;;;;;;;;;;;;;;4987933;28;20329;-70
2022/03/16 08:55:24;;;;;;;;;;;;;;;;;;4997265;28;19972;-69
2022/03/16 08:57:50;;;;;;;;;;;;;;;;;;4983859;28;20379;-70
2022/03/16 09:00:18;;;;;;;;;;;;;;;;;;4998681;28;19947;-69
2022/03/16 09:02:46;;;;;;;;;;;;;;;;;;4999098;28;20366;-69
2022/03/16 09:05:15;;;;;;;;;;;;;;;;;;4999946;28;19928;-69
2022/03/16 09:07:42;;;;;;;;;;;;;;;;;;4996309;28;20361;-70
2022/03/16 09:10:28;;;;;;;;;;;;;;;;;;4996869;28;20059;-69
2022/03/16 09:12:55;;;;;;;;;;;;;;;;;;4985555;28;19917;-70
2022/03/16 09:15:23;;;;;;;;;;;;;;;;;;4980769;28;20439;-69
2022/03/16 09:17:49;;;;;;;;;;;;;;;;;;5000451;28;20064;-70
2022/03/16 09:20:15;;;;;;;;;;;;;;;;;;5002063;28;19925;-70
2022/03/16 09:22:43;;;;;;;;;;;;;;;;;;4996563;28;20444;-70
2022/03/16 09:25:13;;;;;;;;;;;;;;;;;;5025951;28;20473;-70
2022/03/16 09:27:39;;;;;;;;;;;;;;;;;;5022673;28;22075;-70
2022/03/16 09:30:05;;;;;;;;;;;;;;;;;;5024364;28;19971;-70
2022/03/16 09:32:33;;;;;;;;;;;;;;;;;;5022264;28;19971;-70
2022/03/16 09:34:59;;;;;;;;;;;;;;;;;;5021766;28;19916;-70
2022/03/16 09:37:26;;;;;;;;;;;;;;;;;;5003157;28;19923;-70
2022/03/16 09:39:52;;;;;;;;;;;;;;;;;;5024775;28;19921;-70
2022/03/16 09:42:22;;;;;;;;;;;;;;;;;;5023432;28;19941;-70
2022/03/16 09:44:50;;;;;;;;;;;;;;;;;;5008843;28;19921;-70
2022/03/16 09:47:17;;;;;;;;;;;;;;;;;;5024793;28;20031;-71
2022/03/16 09:49:46;;;;;;;;;;;;;;;;;;5015026;28;19924;-70
2022/03/16 09:52:32;;;;;;;;;;;;;;;;;;5013815;28;19931;-70
2022/03/16 09:54:58;;;;;;;;;;;;;;;;;;5021837;28;19925;-70
2022/03/16 09:57:24;;;;;;;;;;;;;;;;;;5020226;28;20504;-70
2022/03/16 09:59:51;;;;;;;;;;;;;;;;;;5022346;28;19920;-71
2022/03/16 10:02:18;;;;;;;;;;;;;;;;;;5020959;28;20401;-70
2022/03/16 10:04:47;;;;;;;;;;;;;;;;;;5021238;28;20373;-70
2022/03/16 10:07:13;;;;;;;;;;;;;;;;;;5024789;28;19920;-71
2022/03/16 10:15:12;;;;;;;;;;;;;;;;;;5027177;28;19923;-70
2022/03/16 10:17:44;;;;;;;;;;;;;;;;;;5012498;28;19928;-70
2022/03/16 10:20:10;;;;;;;;;;;;;;;;;;5009071;28;19917;-70
2022/03/16 10:22:40;;;;;;;;;;;;;;;;;;5008266;28;19916;-70
2022/03/16 10:25:10;;;;;;;;;;;;;;;;;;5008234;28;19917;-70
2022/03/16 10:27:56;;;;;;;;;;;;;;;;;;5008412;28;19949;-70
2022/03/16 10:30:23;;;;;;;;;;;;;;;;;;4988828;28;20452;-69
2022/03/16 10:32:53;;;;;;;;;;;;;;;;;;4994993;28;20465;-70
2022/03/16 10:35:19;;;;;;;;;;;;;;;;;;4997055;28;20091;-70
2022/03/16 10:37:50;;;;;;;;;;;;;;;;;;5018543;28;20594;-70
2022/03/16 10:40:17;;;;;;;;;;;;;;;;;;5020044;28;19925;-70
2022/03/16 10:48:14;;;;;;;;;;;;;;;;;;5021822;28;19924;-70
2022/03/16 10:50:40;;;;;;;;;;;;;;;;;;5013772;28;19921;-70
2022/03/16 10:53:06;;;;;;;;;;;;;;;;;;5022364;28;19917;-70
2022/03/16 10:55:31;;;;;;;;;;;;;;;;;;5023012;28;19924;-70
2022/03/16 10:57:57;;;;;;;;;;;;;;;;;;5017481;28;20375;-70
2022/03/16 11:00:27;;;;;;;;;;;;;;;;;;5020846;28;19917;-70
2022/03/16 11:02:53;;;;;;;;;;;;;;;;;;5023024;28;20381;-70
2022/03/16 11:05:20;;;;;;;;;;;;;;;;;;5019701;28;19971;-70
2022/03/16 11:07:48;;;;;;;;;;;;;;;;;;5019973;28;19944;-70
2022/03/16 11:10:14;;;;;;;;;;;;;;;;;;5017772;28;19921;-70
2022/03/16 11:15:32;;;;;;;;;;;;;;;;;;5007807;28;19947;-69
2022/03/16 11:18:00;;;;;;;;;;;;;;;;;;5020165;28;19966;-70
2022/03/16 11:20:28;;;;;;;;;;;;;;;;;;5025987;28;19920;-69
2022/03/16 11:25:42;;;;;;;;;;;;;;;;;;5022115;28;19932;-70
2022/03/16 11:28:08;;;;;;;;;;;;;;;;;;5025376;28;20393;-70
2022/03/16 11:30:36;;;;;;;;;;;;;;;;;;5021879;28;20435;-70
2022/03/16 11:33:04;;;;;;;;;;;;;;;;;;5026286;28;19972;-70
2022/03/16 11:35:32;;;;;;;;;;;;;;;;;;5023513;28;19921;-70
2022/03/16 11:38:00;;;;;;;;;;;;;;;;;;5027176;28;20330;-70
2022/03/16 11:40:27;;;;;;;;;;;;;;;;;;5024264;28;19917;-70
2022/03/16 11:42:54;;;;;;;;;;;;;;;;;;5023432;28;19932;-70
2022/03/16 11:45:21;;;;;;;;;;;;;;;;;;5024173;28;19935;-70
2022/03/16 11:47:48;;;;;;;;;;;;;;;;;;5025754;28;20021;-70
2022/03/16 11:50:15;;;;;;;;;;;;;;;;;;5027786;28;19917;-70
2022/03/16 11:52:47;;;;;;;;;;;;;;;;;;5020923;28;19920;-70
2022/03/16 11:55:23;;;;;;;;;;;;;;;;;;5022433;28;20353;-70
2022/03/16 11:57:51;;;;;;;;;;;;;;;;;;5025669;28;19923;-70
2022/03/16 12:00:26;;;;;;;;;;;;;;;;;;5023831;28;19929;-71
2022/03/16 12:02:53;;;;;;;;;;;;;;;;;;5006291;28;19924;-72
2022/03/16 12:05:22;;;;;;;;;;;;;;;;;;5019505;28;20046;-70
2022/03/16 12:07:49;;;;;;;;;;;;;;;;;;5026402;28;19932;-70
2022/03/16 12:10:16;;;;;;;;;;;;;;;;;;5008611;28;19924;-70
2022/03/16 12:12:57;;;;;;;;;;;;;;;;;;5025216;28;19946;-70
2022/03/16 12:15:26;;;;;;;;;;;;;;;;;;5026471;28;19916;-70
2022/03/16 12:17:55;;;;;;;;;;;;;;;;;;5025143;28;19928;-70
2022/03/16 12:20:21;;;;;;;;;;;;;;;;;;5023734;28;19924;-70
2022/03/16 12:22:48;;;;;;;;;;;;;;;;;;5027786;28;19917;-70
2022/03/16 12:25:14;;;;;;;;;;;;;;;;;;5027620;28;20484;-70
2022/03/16 12:30:26;;;;;;;;;;;;;;;;;;5026328;28;20341;-70
2022/03/16 12:32:55;;;;;;;;;;;;;;;;;;5025387;28;20264;-71
2022/03/16 12:35:25;;;;;;;;;;;;;;;;;;5024081;28;20960;-70
2022/03/16 12:37:54;;;;;;;;;;;;;;;;;;5026962;28;19928;-70
2022/03/16 12:40:20;;;;;;;;;;;;;;;;;;5027058;28;19917;-70
2022/03/16 12:42:48;;;;;;;;;;;;;;;;;;5027682;28;20812;-70
2022/03/16 12:45:25;;;;;;;;;;;;;;;;;;5025090;28;19963;-70
2022/03/16 12:47:55;;;;;;;;;;;;;;;;;;5008587;28;19917;-70
2022/03/16 12:50:24;;;;;;;;;;;;;;;;;;5025249;28;19932;-70
2022/03/16 12:52:50;;;;;;;;;;;;;;;;;;5009794;28;20063;-70
2022/03/16 12:55:17;;;;;;;;;;;;;;;;;;5029909;28;19943;-70
2022/03/16 12:57:44;;;;;;;;;;;;;;;;;;5025863;28;19952;-70
2022/03/16 13:00:12;;;;;;;;;;;;;;;;;;5028840;28;19921;-70
2022/03/16 13:02:41;;;;;;;;;;;;;;;;;;5025283;28;20275;-70
2022/03/16 13:05:08;;;;;;;;;;;;;;;;;;5027346;28;19964;-71
2022/03/16 13:07:35;;;;;;;;;;;;;;;;;;5005815;28;20321;-71
2022/03/16 13:10:04;;;;;;;;;;;;;;;;;;5028557;28;19916;-71
2022/03/16 13:12:30;;;;;;;;;;;;;;;;;;5025389;28;19921;-70
2022/03/16 13:14:57;;;;;;;;;;;;;;;;;;5010173;28;20544;-70
2022/03/16 13:17:24;;;;;;;;;;;;;;;;;;5021828;28;19917;-70
2022/03/16 13:19:55;;;;;;;;;;;;;;;;;;5027779;28;20023;-70
2022/03/16 13:22:22;;;;;;;;;;;;;;;;;;5023761;28;20126;-70
2022/03/16 13:24:48;;;;;;;;;;;;;;;;;;5025340;28;19952;-70
2022/03/16 13:27:15;;;;;;;;;;;;;;;;;;5008631;28;20012;-70
2022/03/16 13:29:43;;;;;;;;;;;;;;;;;;5023297;28;20497;-70
2022/03/16 13:32:10;;;;;;;;;;;;;;;;;;5028323;28;19925;-71
2022/03/16 13:34:36;;;;;;;;;;;;;;;;;;5007181;28;19971;-70
2022/03/16 13:37:02;;;;;;;;;;;;;;;;;;5028410;28;20014;-70
2022/03/16 13:39:28;;;;;;;;;;;;;;;;;;5006394;28;19986;-70
2022/03/16 13:42:04;;;;;;;;;;;;;;;;;;5014619;28;19916;-70
2022/03/16 13:44:41;;;;;;;;;;;;;;;;;;5031278;28;19935;-70
2022/03/16 13:47:07;;;;;;;;;;;;;;;;;;5034868;28;20232;-70
2022/03/16 13:49:34;;;;;;;;;;;;;;;;;;5026977;28;19926;-72
2022/03/16 13:52:02;;;;;;;;;;;;;;;;;;5029656;28;20035;-72
2022/03/16 13:54:30;;;;;;;;;;;;;;;;;;5015752;28;20011;-72
2022/03/16 13:56:57;;;;;;;;;;;;;;;;;;5029006;28;20018;-72
2022/03/16 13:59:24;;;;;;;;;;;;;;;;;;5030139;28;19983;-70
2022/03/16 14:01:50;;;;;;;;;;;;;;;;;;5030818;28;19920;-71
2022/03/16 14:04:17;;;;;;;;;;;;;;;;;;5031572;28;20354;-70
2022/03/16 14:06:43;;;;;;;;;;;;;;;;;;5030118;28;20566;-71
2022/03/16 14:09:09;;;;;;;;;;;;;;;;;;5033336;28;20040;-69
2022/03/16 14:11:38;;;;;;;;;;;;;;;;;;5028054;28;20426;-70
2022/03/16 14:14:15;;;;;;;;;;;;;;;;;;5029238;28;20384;-70
2022/03/16 14:16:45;;;;;;;;;;;;;;;;;;5032778;28;20911;-69
2022/03/16 14:19:15;;;;;;;;;;;;;;;;;;5020823;28;19921;-70
2022/03/16 14:21:45;;;;;;;;;;;;;;;;;;5017370;28;19956;-70
2022/03/16 14:24:13;;;;;;;;;;;;;;;;;;5018430;28;19953;-71
2022/03/16 14:26:43;;;;;;;;;;;;;;;;;;5010019;28;20012;-71
2022/03/16 14:29:09;;;;;;;;;;;;;;;;;;4992055;28;20470;-70
2022/03/16 14:31:37;;;;;;;;;;;;;;;;;;4993631;28;19925;-70
2022/03/16 14:34:05;;;;;;;;;;;;;;;;;;4991040;28;19920;-70
2022/03/16 14:36:37;;;;;;;;;;;;;;;;;;4961820;28;20035;-70
2022/03/16 14:39:07;;;;;;;;;;;;;;;;;;4995247;28;19949;-70
2022/03/16 14:41:34;;;;;;;;;;;;;;;;;;4990560;28;19956;-70
2022/03/16 14:44:00;;;;;;;;;;;;;;;;;;4984370;28;20510;-70
2022/03/16 14:46:28;;;;;;;;;;;;;;;;;;4983781;28;19922;-71
2022/03/16 14:48:57;;;;;;;;;;;;;;;;;;4956246;28;19917;-70
2022/03/16 14:51:24;;;;;;;;;;;;;;;;;;4987005;28;20380;-69
2022/03/16 14:53:50;;;;;;;;;;;;;;;;;;4987532;28;19924;-69
2022/03/16 14:56:18;;;;;;;;;;;;;;;;;;4987812;28;19913;-70
2022/03/16 14:58:44;;;;;;;;;;;;;;;;;;4983223;28;20359;-69
2022/03/16 15:01:10;;;;;;;;;;;;;;;;;;4986706;28;19917;-70
2022/03/16 15:03:38;;;;;;;;;;;;;;;;;;4982686;28;20347;-71
2022/03/16 15:06:09;;;;;;;;;;;;;;;;;;4987535;28;19948;-70
2022/03/16 15:08:34;;;;;;;;;;;;;;;;;;4981409;28;20000;-70
2022/03/16 15:11:00;;;;;;;;;;;;;;;;;;4985251;28;19975;-70
2022/03/16 15:13:26;;;;;;;;;;;;;;;;;;4982139;28;19917;-70
2022/03/16 15:15:52;;;;;;;;;;;;;;;;;;4986599;28;20489;-68
2022/03/16 15:18:19;;;;;;;;;;;;;;;;;;4978228;28;19995;-68
2022/03/16 15:20:47;;;;;;;;;;;;;;;;;;5007533;28;19921;-68
2022/03/16 15:23:13;;;;;;;;;;;;;;;;;;5000198;28;20256;-69
2022/03/16 15:25:40;;;;;;;;;;;;;;;;;;5005099;28;20299;-69
2022/03/16 15:28:07;;;;;;;;;;;;;;;;;;4999798;28;19917;-69
2022/03/16 15:30:34;;;;;;;;;;;;;;;;;;4998746;28;20032;-69
2022/03/16 15:32:59;;;;;;;;;;;;;;;;;;4989263;28;19929;-69
2022/03/16 15:35:26;;;;;;;;;;;;;;;;;;4999460;28;19924;-69
2022/03/16 15:37:53;;;;;;;;;;;;;;;;;;5009032;28;19921;-70
2022/03/16 15:43:05;;;;;;;;;;;;;;;;;;5006780;28;19923;-70
2022/03/16 15:45:31;;;;;;;;;;;;;;;;;;5006347;28;19921;-68
2022/03/16 15:47:58;;;;;;;;;;;;;;;;;;5009056;28;20023;-68
2022/03/16 15:50:25;;;;;;;;;;;;;;;;;;5005863;28;20419;-68
2022/03/16 15:52:53;;;;;;;;;;;;;;;;;;5011061;28;19932;-69
2022/03/16 15:55:20;;;;;;;;;;;;;;;;;;5011629;28;19964;-67
2022/03/16 15:57:47;;;;;;;;;;;;;;;;;;5010061;28;20667;-68
2022/03/16 16:00:14;;;;;;;;;;;;;;;;;;5011908;28;19975;-69
2022/03/16 16:02:40;;;;;;;;;;;;;;;;;;5009529;28;20459;-69
2022/03/16 16:05:08;;;;;;;;;;;;;;;;;;5011486;28;20738;-68
2022/03/16 16:07:35;;;;;;;;;;;;;;;;;;5003765;28;19917;-68
2022/03/16 16:10:04;;;;;;;;;;;;;;;;;;5012145;28;20474;-69
2022/03/16 16:12:30;;;;;;;;;;;;;;;;;;5007893;28;20020;-69
2022/03/16 16:14:57;;;;;;;;;;;;;;;;;;5012325;28;20527;-69
2022/03/16 16:17:23;;;;;;;;;;;;;;;;;;5010219;28;20011;-70
2022/03/16 16:19:50;;;;;;;;;;;;;;;;;;5028937;28;19935;-67
2022/03/16 16:22:16;;;;;;;;;;;;;;;;;;5030713;28;19948;-67
2022/03/16 16:24:44;;;;;;;;;;;;;;;;;;5007805;28;20090;-68
2022/03/16 16:27:11;;;;;;;;;;;;;;;;;;5030005;28;20011;-67
2022/03/16 16:32:04;;;;;;;;;;;;;;;;;;5028783;28;20367;-68
2022/03/16 16:34:32;;;;;;;;;;;;;;;;;;5026358;28;19952;-67
2022/03/16 16:36:59;;;;;;;;;;;;;;;;;;5029826;28;20125;-69
2022/03/16 16:39:26;;;;;;;;;;;;;;;;;;5025928;28;19924;-70
2022/03/16 16:43:09;;;;;;;;;;;;;;;;;;5029209;28;20412;-69
2022/03/16 16:44:43;;;;;;;;;;;;;;;;;;5026564;28;20071;-68
2022/03/16 16:47:10;;;;;;;;;;;;;;;;;;5028953;28;19923;-68
2022/03/16 16:49:39;;;;;;;;;;;;;;;;;;5027660;28;19977;-69
2022/03/16 16:52:05;;;;;;;;;;;;;;;;;;5014213;28;20477;-68
2022/03/16 16:54:31;;;;;;;;;;;;;;;;;;5027411;28;20031;-69
2022/03/16 16:56:58;;;;;;;;;;;;;;;;;;5028992;28;20276;-70
2022/03/16 16:59:25;;;;;;;;;;;;;;;;;;5010301;28;20381;-70
2022/03/16 17:01:53;;;;;;;;;;;;;;;;;;5031321;28;19924;-69
2022/03/16 17:04:19;;;;;;;;;;;;;;;;;;4981906;28;19921;-70
2022/03/16 17:06:45;;;;;;;;;;;;;;;;;;5012620;28;19924;-70
2022/03/16 17:09:12;;;;;;;;;;;;;;;;;;5031051;28;19916;-69
2022/03/16 17:11:40;;;;;;;;;;;;;;;;;;5029557;28;19925;-69